createdAt,value
2022-11-08T05:12:19.529Z,16.55
2022-11-08T05:15:21.960Z,17.05
2022-11-08T05:18:24.009Z,17.40
2022-11-08T05:21:45.545Z,17.73
2022-11-08T05:24:47.607Z,15.77
2022-11-08T05:27:49.884Z,15.82
2022-11-08T05:30:55.933Z,16.52
2022-11-08T05:34:00.008Z,16.40
2022-11-08T05:37:02.063Z,13.98
2022-11-08T05:40:04.776Z,15.77
2022-11-08T05:43:06.865Z,16.15
2022-11-08T05:46:09.187Z,15.75
2022-11-08T05:49:11.221Z,15.05
2022-11-08T05:52:13.496Z,16.02
2022-11-08T05:55:15.569Z,15.23
2022-11-08T05:58:17.852Z,14.52
2022-11-08T06:01:20.941Z,13.68
2022-11-08T06:04:26.016Z,14.40
2022-11-08T06:07:28.722Z,13.45
2022-11-08T06:10:31.077Z,15.55
2022-11-08T06:13:36.562Z,14.10
2022-11-08T06:16:38.883Z,14.02
2022-11-08T06:19:40.988Z,14.40
2022-11-08T06:22:43.556Z,14.35
2022-11-08T06:25:48.475Z,12.80
2022-11-08T06:28:51.145Z,14.15
2022-11-08T06:31:53.187Z,13.62
2022-11-08T06:34:55.476Z,14.15
2022-11-08T06:38:00.713Z,15.27
2022-11-08T06:41:04.383Z,14.25
2022-11-08T06:44:06.418Z,14.60
2022-11-08T06:47:08.709Z,15.32
2022-11-08T06:50:10.803Z,16.55
2022-11-08T06:53:16.720Z,16.75
2022-11-08T06:56:19.055Z,16.75
2022-11-08T06:59:23.066Z,16.35
2022-11-08T07:02:25.211Z,17.90
2022-11-08T07:05:29.284Z,19.08
2022-11-08T07:08:32.597Z,19.50
2022-11-08T07:11:34.896Z,19.27
2022-11-08T07:14:36.935Z,19.12
2022-11-08T07:17:39.326Z,20.27
2022-11-08T07:20:42.793Z,20.88
2022-11-08T07:23:45.111Z,20.77
2022-11-08T07:26:47.185Z,21.23
2022-11-08T07:29:49.480Z,21.85
2022-11-08T07:32:52.439Z,21.00
2022-11-08T07:35:54.924Z,22.08
2022-11-08T07:38:57.806Z,21.23
2022-11-08T07:42:02.088Z,22.42
2022-11-08T07:45:05.964Z,23.25
2022-11-08T07:48:12.853Z,22.52
2022-11-08T07:51:15.486Z,24.33
2022-11-08T07:54:20.644Z,23.50
2022-11-08T07:57:23.140Z,23.92
2022-11-08T08:00:25.448Z,26.08
2022-11-08T08:03:27.893Z,27.13
2022-11-08T08:06:29.966Z,27.00
2022-11-08T08:09:34.560Z,27.52
2022-11-08T08:12:36.581Z,26.58
2022-11-08T08:15:39.189Z,27.30
2022-11-08T08:18:41.215Z,28.45
2022-11-08T08:21:43.587Z,26.48
2022-11-08T08:24:45.621Z,26.95
2022-11-08T08:27:52.654Z,27.45
2022-11-08T08:30:54.709Z,27.37
2022-11-08T08:33:57.036Z,26.27
2022-11-08T08:36:59.084Z,26.80
2022-11-08T08:40:01.463Z,28.52
2022-11-08T08:43:05.147Z,29.40
2022-11-08T08:46:07.472Z,27.98
2022-11-08T08:49:09.576Z,28.85
2022-11-08T08:52:21.587Z,29.17
2022-11-08T08:55:23.965Z,26.42
2022-11-08T08:58:26.269Z,26.98
2022-11-08T09:01:43.558Z,26.75
2022-11-08T09:04:45.873Z,28.80
2022-11-08T09:07:47.944Z,27.30
2022-11-08T09:10:57.757Z,29.20
2022-11-08T09:13:59.797Z,28.92
2022-11-08T09:17:02.271Z,28.67
2022-11-08T09:20:05.861Z,29.67
2022-11-08T09:23:10.663Z,28.40
2022-11-08T09:26:12.724Z,29.37
2022-11-08T09:29:15.065Z,29.35
2022-11-08T09:32:21.650Z,30.65
2022-11-08T09:35:35.580Z,30.20
2022-11-08T09:38:37.637Z,28.62
2022-11-08T09:41:42.912Z,30.15
2022-11-08T09:44:59.972Z,30.27
2022-11-08T09:48:07.670Z,29.52
2022-11-08T09:51:13.754Z,30.42
2022-11-08T09:54:31.610Z,31.33
2022-11-08T09:58:02.714Z,31.10
2022-11-08T10:01:13.715Z,30.27
2022-11-08T10:04:22.419Z,29.45
2022-11-08T10:07:34.985Z,29.58
2022-11-08T10:10:58.149Z,30.48
2022-11-08T10:14:18.260Z,31.42
2022-11-08T10:17:26.499Z,30.62
2022-11-08T10:20:57.001Z,30.37
2022-11-08T10:24:09.366Z,31.52
2022-11-08T10:27:19.116Z,34.05
2022-11-08T10:30:26.923Z,35.05
2022-11-08T10:33:37.438Z,32.95
2022-11-08T10:36:48.461Z,34.05
2022-11-08T10:40:05.578Z,32.95
2022-11-08T10:43:18.467Z,31.65
2022-11-08T10:46:47.049Z,31.90
2022-11-08T10:49:49.871Z,31.35
2022-11-08T10:53:00.940Z,30.60
2022-11-08T10:56:06.031Z,30.00
2022-11-08T10:59:31.539Z,31.45
2022-11-08T11:02:35.572Z,30.77
2022-11-08T11:05:42.295Z,30.65
2022-11-08T11:09:16.821Z,31.98
2022-11-08T11:12:18.920Z,30.80
2022-11-08T11:15:21.538Z,32.40
2022-11-08T11:18:35.726Z,30.17
2022-11-08T11:21:40.792Z,32.05
2022-11-08T11:24:50.304Z,31.60
2022-11-08T11:27:58.938Z,31.15
2022-11-08T11:31:04.037Z,30.23
2022-11-08T11:34:18.848Z,31.62
2022-11-08T11:37:42.689Z,30.30
2022-11-08T11:40:46.948Z,29.23
2022-11-08T11:44:07.081Z,29.98
2022-11-08T11:47:19.164Z,28.08
2022-11-08T11:50:28.610Z,29.10
2022-11-08T11:53:39.501Z,30.42
2022-11-08T11:57:00.454Z,29.92
2022-11-08T12:00:09.671Z,30.88
2022-11-08T12:03:36.132Z,29.33
2022-11-08T12:06:41.965Z,29.45
2022-11-08T12:10:21.909Z,27.52
2022-11-08T12:13:47.860Z,28.12
2022-11-08T12:17:14.717Z,29.17
2022-11-08T12:20:45.863Z,29.30
2022-11-08T12:24:08.989Z,28.83
2022-11-08T12:27:38.557Z,28.42
2022-11-08T12:30:56.221Z,28.50
2022-11-08T12:34:13.814Z,28.90
2022-11-08T12:37:25.164Z,27.60
2022-11-08T12:40:57.091Z,27.42
2022-11-08T12:44:24.269Z,27.67
2022-11-08T12:47:39.008Z,28.58
2022-11-08T12:51:01.309Z,28.05
2022-11-08T12:54:22.621Z,30.40
2022-11-08T12:57:28.208Z,28.87
2022-11-08T13:00:31.483Z,38.78
2022-11-08T13:03:42.817Z,30.95
2022-11-08T13:06:48.056Z,28.80
2022-11-08T13:10:14.742Z,28.67
2022-11-08T13:13:17.010Z,28.40
2022-11-08T13:16:21.911Z,29.35
2022-11-08T13:19:29.724Z,29.48
2022-11-08T13:22:32.115Z,26.83
2022-11-08T13:25:35.811Z,26.37
2022-11-08T13:28:48.039Z,27.77
2022-11-08T13:32:21.110Z,28.92
2022-11-08T13:35:33.081Z,28.70
2022-11-08T13:39:12.768Z,27.17
2022-11-08T13:42:17.489Z,27.73
2022-11-08T13:45:32.514Z,26.60
2022-11-08T13:48:37.549Z,26.15
2022-11-08T13:51:41.392Z,27.13
2022-11-08T13:54:51.014Z,26.25
2022-11-08T13:58:00.003Z,25.48
2022-11-08T14:01:05.851Z,26.25
2022-11-08T14:04:25.095Z,23.92
2022-11-08T14:08:07.002Z,25.35
2022-11-08T14:11:12.485Z,26.35
2022-11-08T14:14:48.875Z,26.17
2022-11-08T14:18:04.986Z,24.63
2022-11-08T14:21:07.471Z,26.37
2022-11-08T14:24:17.504Z,24.77
2022-11-08T14:27:38.697Z,26.70
2022-11-08T14:30:50.518Z,26.50
2022-11-08T14:33:54.100Z,25.15
2022-11-08T14:36:57.831Z,26.73
2022-11-08T14:39:59.955Z,25.30
2022-11-08T14:43:02.252Z,25.95
2022-11-08T14:46:12.747Z,26.52
2022-11-08T14:49:15.600Z,26.73
2022-11-08T14:52:22.653Z,26.00
2022-11-08T14:55:25.794Z,26.50
2022-11-08T14:58:29.767Z,28.65
2022-11-08T15:01:33.017Z,27.77
2022-11-08T15:04:40.093Z,27.98
2022-11-08T15:07:46.576Z,29.15
2022-11-08T15:11:02.864Z,31.10
2022-11-08T15:14:08.450Z,31.90
2022-11-08T15:17:33.525Z,31.85
2022-11-08T15:20:36.178Z,33.15
2022-11-08T15:23:49.607Z,32.05
2022-11-08T15:27:19.329Z,33.90
2022-11-08T15:30:30.208Z,35.78
2022-11-08T15:33:35.975Z,34.92
2022-11-08T15:36:38.066Z,34.17
2022-11-08T15:39:40.393Z,37.03
2022-11-08T15:42:48.964Z,36.10
2022-11-08T15:45:54.144Z,37.55
2022-11-08T15:48:58.175Z,39.35
2022-11-08T15:52:00.812Z,39.00
2022-11-08T15:55:02.866Z,38.28
2022-11-08T15:58:17.140Z,40.47
2022-11-08T16:01:20.748Z,40.45
2022-11-08T16:04:23.663Z,41.28
2022-11-08T16:07:25.720Z,39.72
2022-11-08T16:10:36.504Z,37.85
2022-11-08T16:13:39.297Z,38.25
2022-11-08T16:16:41.617Z,36.90
2022-11-08T16:19:43.666Z,39.92
2022-11-08T16:22:45.960Z,38.17
2022-11-08T16:25:51.533Z,34.78
2022-11-08T16:28:53.825Z,34.33
2022-11-08T16:31:55.860Z,33.40
2022-11-08T16:34:58.157Z,34.70
2022-11-08T16:38:00.179Z,30.75
2022-11-08T16:41:03.684Z,33.45
2022-11-08T16:44:05.752Z,33.65
2022-11-08T16:47:17.304Z,34.88
